createdAt,value
2023-02-14T00:00:50.605Z,17.20
2023-02-14T00:03:17.349Z,17.13
2023-02-14T00:05:44.037Z,19.33
2023-02-14T00:08:10.933Z,16.70
2023-02-14T00:10:37.711Z,16.67
2023-02-14T00:13:04.502Z,18.80
2023-02-14T00:15:31.370Z,18.07
2023-02-14T00:18:00.940Z,18.90
2023-02-14T00:20:28.624Z,19.67
2023-02-14T00:22:55.297Z,18.13
2023-02-14T00:25:22.236Z,19.00
2023-02-14T00:27:48.984Z,18.97
2023-02-14T00:30:15.816Z,19.40
2023-02-14T00:32:43.202Z,19.10
2023-02-14T00:35:10.819Z,19.00
2023-02-14T00:37:37.529Z,19.40
2023-02-14T00:40:06.086Z,18.70
2023-02-14T00:42:32.840Z,21.37
2023-02-14T00:44:59.561Z,20.87
2023-02-14T00:47:26.268Z,23.13
2023-02-14T00:49:52.901Z,21.33
2023-02-14T00:52:19.730Z,21.00
2023-02-14T00:54:46.551Z,23.70
2023-02-14T00:57:13.180Z,22.13
2023-02-14T00:59:39.856Z,22.67
2023-02-14T01:02:06.900Z,20.30
2023-02-14T01:04:33.618Z,20.77
2023-02-14T01:07:00.212Z,22.53
2023-02-14T01:09:26.873Z,20.83
2023-02-14T01:11:53.664Z,21.70
2023-02-14T01:14:20.330Z,20.47
2023-02-14T01:16:47.003Z,18.83
2023-02-14T01:19:14.200Z,18.87
2023-02-14T01:21:41.838Z,18.47
2023-02-14T01:24:08.804Z,20.20
2023-02-14T01:26:36.157Z,19.60
2023-02-14T01:29:03.858Z,18.57
2023-02-14T01:31:33.547Z,19.37
2023-02-14T01:34:00.547Z,18.70
2023-02-14T01:36:31.652Z,19.93
2023-02-14T01:39:02.272Z,20.37
2023-02-14T01:41:32.432Z,19.40
2023-02-14T01:44:14.278Z,19.97
2023-02-14T01:46:42.925Z,18.60
2023-02-14T01:49:12.040Z,18.93
2023-02-14T01:51:43.593Z,18.37
2023-02-14T01:54:11.893Z,18.83
2023-02-14T01:56:43.551Z,18.40
2023-02-14T01:59:16.625Z,19.10
2023-02-14T02:01:44.959Z,18.00
2023-02-14T02:04:22.606Z,19.23
2023-02-14T02:06:54.987Z,18.60
2023-02-14T02:09:35.623Z,19.57
2023-02-14T02:12:02.854Z,18.67
2023-02-14T02:14:29.692Z,22.37
2023-02-14T02:17:47.704Z,20.57
2023-02-14T02:20:52.238Z,20.17
2023-02-14T02:23:55.505Z,19.97
2023-02-14T02:26:55.324Z,19.67
2023-02-14T02:30:12.914Z,18.67
2023-02-14T02:33:03.626Z,19.03
2023-02-14T02:36:05.626Z,17.70
2023-02-14T02:38:47.089Z,18.73
2023-02-14T02:41:41.190Z,19.03
2023-02-14T02:44:32.188Z,18.63
2023-02-14T02:47:15.423Z,19.50
2023-02-14T02:50:29.883Z,18.30
2023-02-14T02:53:19.043Z,18.60
2023-02-14T02:56:10.460Z,18.23
2023-02-14T02:58:42.696Z,18.40
2023-02-14T03:01:15.299Z,17.80
2023-02-14T03:04:04.781Z,18.07
2023-02-14T03:06:32.410Z,19.07
2023-02-14T03:09:13.232Z,18.30
2023-02-14T03:11:48.813Z,18.50
2023-02-14T03:14:33.836Z,19.67
2023-02-14T03:17:14.092Z,18.30
2023-02-14T03:20:16.312Z,18.00
2023-02-14T03:22:54.198Z,18.50
2023-02-14T03:25:45.430Z,20.23
2023-02-14T03:28:20.556Z,19.50
2023-02-14T03:31:12.692Z,20.43
2023-02-14T03:33:54.531Z,19.80
2023-02-14T03:36:30.848Z,21.53
2023-02-14T03:39:13.752Z,19.10
2023-02-14T03:41:50.194Z,19.90
2023-02-14T03:44:21.756Z,19.37
2023-02-14T03:47:19.751Z,21.13
2023-02-14T03:49:55.697Z,19.73
2023-02-14T03:52:24.927Z,20.47
2023-02-14T03:54:54.421Z,20.50
2023-02-14T03:57:51.492Z,20.30
2023-02-14T04:00:18.980Z,20.40
2023-02-14T04:02:56.952Z,19.03
2023-02-14T04:05:27.285Z,20.97
2023-02-14T04:07:56.906Z,19.97
2023-02-14T04:10:24.431Z,21.80
2023-02-14T04:12:51.727Z,20.90
2023-02-14T04:15:18.692Z,21.23
2023-02-14T04:18:04.121Z,20.80
2023-02-14T04:20:30.775Z,21.13
2023-02-14T04:22:57.684Z,21.83
2023-02-14T04:25:24.904Z,21.27
2023-02-14T04:27:52.180Z,22.30
2023-02-14T04:30:20.845Z,22.57
2023-02-14T04:32:47.692Z,20.27
2023-02-14T04:35:14.701Z,19.90
2023-02-14T04:37:42.023Z,21.60
2023-02-14T04:40:09.209Z,19.53
2023-02-14T04:42:35.904Z,20.43
2023-02-14T04:45:04.178Z,19.47
2023-02-14T04:47:31.066Z,23.00
2023-02-14T04:49:57.887Z,19.67
2023-02-14T04:52:24.592Z,20.40
2023-02-14T04:54:51.301Z,20.90
2023-02-14T04:57:17.963Z,22.60
2023-02-14T04:59:44.701Z,20.23
2023-02-14T05:02:11.496Z,22.50
2023-02-14T05:04:38.306Z,23.20
2023-02-14T05:07:04.941Z,24.37
2023-02-14T05:09:31.672Z,23.07
2023-02-14T05:11:58.364Z,21.47
2023-02-14T05:14:25.094Z,21.90
2023-02-14T05:16:51.726Z,23.50
2023-02-14T05:19:18.386Z,24.00
2023-02-14T05:21:45.144Z,20.17
2023-02-14T05:24:11.799Z,22.03
2023-02-14T05:26:38.464Z,21.47
2023-02-14T05:29:05.338Z,22.50
2023-02-14T05:31:32.207Z,21.10
2023-02-14T05:34:00.472Z,23.13
2023-02-14T05:36:27.181Z,22.63
2023-02-14T05:38:53.791Z,22.73
2023-02-14T05:41:20.453Z,22.17
2023-02-14T05:43:47.173Z,23.20
2023-02-14T05:46:14.086Z,23.63
2023-02-14T05:48:40.910Z,23.47
2023-02-14T05:51:10.392Z,22.97
2023-02-14T05:53:38.027Z,21.50
2023-02-14T05:56:05.174Z,23.40
2023-02-14T05:58:32.143Z,23.40
2023-02-14T06:00:59.766Z,22.87
2023-02-14T06:03:27.076Z,21.80
2023-02-14T06:05:53.860Z,25.00
2023-02-14T06:08:20.639Z,22.50
2023-02-14T06:10:47.312Z,24.03
2023-02-14T06:13:14.091Z,24.17
2023-02-14T06:15:41.020Z,23.43
2023-02-14T06:18:07.802Z,23.77
2023-02-14T06:20:34.602Z,24.33
2023-02-14T06:23:01.867Z,23.30
2023-02-14T06:25:28.704Z,23.17
2023-02-14T06:27:59.031Z,22.27
2023-02-14T06:30:26.763Z,23.33
2023-02-14T06:32:53.564Z,23.37
2023-02-14T06:35:20.475Z,22.53
2023-02-14T06:37:47.413Z,23.87
2023-02-14T06:40:14.736Z,22.43
2023-02-14T06:42:41.666Z,24.13
2023-02-14T06:45:08.903Z,24.60
2023-02-14T06:47:35.815Z,24.23
2023-02-14T06:50:05.032Z,25.70
2023-02-14T06:52:32.929Z,23.87
2023-02-14T06:54:59.574Z,21.60
2023-02-14T06:57:26.288Z,23.17
2023-02-14T06:59:52.902Z,24.40
2023-02-14T07:02:19.845Z,23.40
2023-02-14T07:04:46.795Z,25.17
2023-02-14T07:07:13.861Z,25.00
2023-02-14T07:09:40.668Z,23.77
2023-02-14T07:12:07.703Z,23.70
2023-02-14T07:14:34.429Z,24.20
2023-02-14T07:17:01.364Z,23.40
2023-02-14T07:19:28.110Z,21.73
2023-02-14T07:21:54.771Z,20.97
2023-02-14T07:24:21.468Z,20.97
2023-02-14T07:26:48.121Z,21.40
2023-02-14T07:29:14.867Z,21.50
2023-02-14T07:31:41.674Z,20.20
2023-02-14T07:34:08.544Z,24.97
2023-02-14T07:36:37.963Z,23.03
2023-02-14T07:39:05.461Z,20.33
2023-02-14T07:41:32.290Z,20.73
2023-02-14T07:43:59.043Z,21.47
2023-02-14T07:46:25.868Z,21.80
2023-02-14T07:48:52.569Z,21.97
2023-02-14T07:51:19.547Z,22.97
2023-02-14T07:53:46.294Z,20.27
2023-02-14T07:56:12.961Z,21.43
2023-02-14T07:58:39.652Z,22.63
2023-02-14T08:01:06.458Z,22.93
2023-02-14T08:03:33.174Z,19.83
2023-02-14T08:05:59.910Z,20.83
2023-02-14T08:08:28.526Z,19.77
2023-02-14T08:10:55.358Z,19.57
2023-02-14T08:13:22.301Z,19.10
2023-02-14T08:16:07.694Z,20.70
2023-02-14T08:18:42.248Z,20.60
2023-02-14T08:21:11.239Z,20.23
2023-02-14T08:23:38.776Z,20.43
2023-02-14T08:26:05.753Z,20.40
2023-02-14T08:28:33.158Z,20.10
2023-02-14T08:31:00.815Z,19.97
2023-02-14T08:33:28.273Z,21.77
2023-02-14T08:35:54.951Z,20.73
2023-02-14T08:38:21.903Z,21.80
2023-02-14T08:40:48.570Z,21.47
2023-02-14T08:43:15.338Z,16.30
2023-02-14T08:45:42.347Z,19.27
2023-02-14T08:48:11.072Z,18.07
2023-02-14T08:50:38.851Z,18.33
2023-02-14T08:53:11.195Z,21.90
2023-02-14T08:55:38.987Z,20.77
2023-02-14T08:58:06.262Z,18.93
2023-02-14T09:00:34.142Z,20.00
2023-02-14T09:03:01.062Z,21.50
2023-02-14T09:05:27.881Z,23.30
2023-02-14T09:07:57.534Z,22.20
2023-02-14T09:10:25.766Z,21.27
2023-02-14T09:12:52.569Z,23.30
2023-02-14T09:15:19.678Z,24.30
2023-02-14T09:17:47.055Z,21.70
2023-02-14T09:20:15.412Z,23.00
2023-02-14T09:22:42.351Z,25.27
2023-02-14T09:25:09.535Z,23.40
2023-02-14T09:27:36.703Z,23.40
2023-02-14T09:30:03.966Z,23.30
2023-02-14T09:32:31.461Z,22.87
2023-02-14T09:35:17.133Z,23.40
2023-02-14T09:38:02.588Z,22.97
2023-02-14T09:40:31.288Z,21.63
2023-02-14T09:43:30.830Z,22.17
2023-02-14T09:46:00.848Z,21.23
2023-02-14T09:48:33.956Z,22.23
2023-02-14T09:51:07.047Z,19.93
2023-02-14T09:53:36.594Z,19.47
2023-02-14T09:56:20.568Z,20.77
2023-02-14T09:58:49.931Z,21.60
2023-02-14T10:01:22.174Z,19.00
2023-02-14T10:04:17.255Z,20.10
2023-02-14T10:07:31.933Z,20.57
2023-02-14T10:10:27.120Z,21.53
2023-02-14T10:13:01.265Z,21.47
2023-02-14T10:15:36.759Z,20.47
2023-02-14T10:18:27.734Z,23.13
2023-02-14T10:21:00.160Z,20.40
2023-02-14T10:23:42.476Z,21.57
2023-02-14T10:26:24.760Z,21.40
2023-02-14T10:28:51.494Z,20.23
2023-02-14T10:31:24.295Z,19.40
2023-02-14T10:33:59.106Z,19.00
2023-02-14T10:36:52.226Z,19.43
2023-02-14T10:39:30.891Z,20.10
2023-02-14T10:42:17.157Z,20.70
2023-02-14T10:45:19.495Z,20.30
2023-02-14T10:48:20.497Z,19.63
2023-02-14T10:50:56.030Z,21.30
2023-02-14T10:53:28.325Z,20.90
2023-02-14T10:56:01.330Z,21.90
2023-02-14T10:58:32.527Z,21.97
2023-02-14T11:01:17.824Z,22.10
2023-02-14T11:03:55.900Z,21.30
2023-02-14T11:06:22.725Z,20.97
2023-02-14T11:08:49.385Z,20.60
2023-02-14T11:11:26.475Z,19.13
2023-02-14T11:13:53.423Z,21.27
2023-02-14T11:16:37.072Z,20.37
2023-02-14T11:19:16.016Z,20.40
2023-02-14T11:21:44.924Z,18.43
2023-02-14T11:24:19.870Z,21.13
2023-02-14T11:26:48.960Z,19.80
2023-02-14T11:29:24.872Z,18.67
2023-02-14T11:31:51.899Z,19.50
2023-02-14T11:34:36.396Z,19.67
2023-02-14T11:37:27.770Z,18.00
2023-02-14T11:39:57.354Z,19.30
2023-02-14T11:42:38.874Z,20.07
2023-02-14T11:45:06.212Z,20.50
2023-02-14T11:47:41.318Z,17.67
2023-02-14T11:50:24.729Z,20.93
2023-02-14T11:52:55.237Z,19.13
2023-02-14T11:55:28.514Z,20.50
2023-02-14T11:57:57.018Z,21.13
2023-02-14T12:00:26.838Z,20.30
2023-02-14T12:02:54.361Z,20.00
2023-02-14T12:05:26.703Z,20.40
2023-02-14T12:07:57.596Z,19.60
2023-02-14T12:10:24.332Z,20.10
2023-02-14T12:13:03.431Z,20.90
2023-02-14T12:15:30.249Z,19.43
2023-02-14T12:18:19.883Z,18.03
2023-02-14T12:20:55.708Z,19.80
2023-02-14T12:23:47.480Z,17.70
2023-02-14T12:26:19.834Z,18.97
2023-02-14T12:28:56.787Z,18.00
2023-02-14T12:31:23.695Z,20.97
2023-02-14T12:33:50.750Z,17.43
2023-02-14T12:37:02.240Z,20.33
2023-02-14T12:40:02.944Z,20.80
2023-02-14T12:42:53.742Z,20.53
2023-02-14T12:45:48.789Z,19.77
2023-02-14T12:48:30.370Z,18.87
2023-02-14T12:51:26.338Z,20.20
2023-02-14T12:54:18.861Z,18.53
2023-02-14T12:57:12.863Z,22.63
2023-02-14T13:00:09.798Z,25.63
2023-02-14T13:02:54.942Z,25.40
2023-02-14T13:05:49.090Z,22.10
2023-02-14T13:08:40.878Z,20.90
2023-02-14T13:11:35.211Z,20.53
2023-02-14T13:14:28.552Z,19.87
2023-02-14T13:17:09.598Z,20.13
2023-02-14T13:20:17.913Z,19.63
2023-02-14T13:22:46.301Z,19.30
2023-02-14T13:25:24.391Z,20.77
2023-02-14T13:27:51.750Z,20.43
2023-02-14T13:30:31.990Z,21.37
2023-02-14T13:33:16.399Z,19.83
2023-02-14T13:35:43.551Z,19.87
2023-02-14T13:38:14.656Z,21.00
2023-02-14T13:40:42.016Z,18.50
2023-02-14T13:43:09.382Z,20.33
2023-02-14T13:45:37.192Z,20.10
2023-02-14T13:48:19.808Z,19.37
2023-02-14T13:51:14.830Z,23.40
2023-02-14T13:53:44.874Z,24.23
2023-02-14T13:56:17.732Z,24.60
2023-02-14T13:58:59.920Z,22.53
2023-02-14T14:01:48.052Z,23.60
2023-02-14T14:04:30.572Z,24.23
2023-02-14T14:07:15.414Z,30.13
2023-02-14T14:09:42.043Z,29.20
2023-02-14T14:12:26.930Z,26.50
2023-02-14T14:15:05.653Z,27.47
2023-02-14T14:17:33.594Z,23.10
2023-02-14T14:20:01.137Z,24.63
2023-02-14T14:22:28.692Z,23.00
2023-02-14T14:24:58.827Z,22.93
2023-02-14T14:27:42.705Z,24.50
2023-02-14T14:30:21.187Z,25.63
2023-02-14T14:32:48.461Z,26.63
2023-02-14T14:35:19.790Z,24.87
2023-02-14T14:37:56.134Z,25.27
2023-02-14T14:40:35.586Z,25.90
2023-02-14T14:43:13.341Z,23.40
2023-02-14T14:45:43.402Z,22.97
2023-02-14T14:48:19.144Z,23.70
2023-02-14T14:50:48.945Z,22.97
2023-02-14T14:53:22.983Z,21.20
2023-02-14T14:55:52.111Z,19.40
2023-02-14T14:58:37.876Z,20.20
2023-02-14T15:01:07.655Z,22.70
2023-02-14T15:03:34.516Z,27.70
2023-02-14T15:06:19.727Z,24.97
2023-02-14T15:08:48.567Z,21.50
2023-02-14T15:11:35.509Z,22.17
2023-02-14T15:14:05.617Z,21.90
2023-02-14T15:16:44.806Z,24.60
2023-02-14T15:19:34.864Z,20.90
2023-02-14T15:22:07.608Z,22.43
2023-02-14T15:24:37.885Z,22.27
2023-02-14T15:27:05.203Z,20.97
2023-02-14T15:29:33.316Z,21.10
2023-02-14T15:32:03.183Z,21.30
2023-02-14T15:34:36.344Z,24.53
2023-02-14T15:37:06.343Z,23.67
2023-02-14T15:39:37.347Z,25.97
2023-02-14T15:42:05.878Z,28.10
2023-02-14T15:44:32.871Z,28.37
2023-02-14T15:47:03.577Z,27.77
2023-02-14T15:49:38.046Z,28.50
2023-02-14T15:52:06.870Z,27.33
2023-02-14T15:54:39.207Z,26.33
2023-02-14T15:57:16.785Z,29.47
2023-02-14T15:59:43.581Z,25.90
2023-02-14T16:02:37.690Z,24.43
2023-02-14T16:05:22.117Z,27.10
2023-02-14T16:08:03.805Z,23.47
2023-02-14T16:10:38.326Z,26.43
2023-02-14T16:13:12.402Z,25.73
2023-02-14T16:15:43.925Z,24.40
2023-02-14T16:18:33.872Z,23.63
2023-02-14T16:21:13.388Z,25.50
2023-02-14T16:23:40.544Z,25.77
2023-02-14T16:26:08.361Z,26.83
2023-02-14T16:28:36.896Z,23.30
2023-02-14T16:31:06.213Z,23.53
2023-02-14T16:33:35.956Z,21.63
2023-02-14T16:36:13.218Z,22.60
2023-02-14T16:38:44.986Z,21.50
2023-02-14T16:41:20.908Z,22.30
2023-02-14T16:43:48.715Z,22.47
2023-02-14T16:46:18.037Z,22.90
2023-02-14T16:48:52.067Z,22.83
2023-02-14T16:51:24.824Z,22.87
2023-02-14T16:53:51.575Z,23.30
2023-02-14T16:56:26.752Z,22.10
2023-02-14T16:58:53.527Z,23.10
2023-02-14T17:01:20.321Z,24.57
2023-02-14T17:03:47.100Z,23.00
2023-02-14T17:06:19.261Z,22.37
2023-02-14T17:08:48.728Z,23.03
2023-02-14T17:11:15.868Z,25.63
2023-02-14T17:13:44.467Z,25.90
2023-02-14T17:16:15.494Z,26.57
2023-02-14T17:18:47.472Z,24.00
2023-02-14T17:21:16.273Z,23.87
2023-02-14T17:23:43.000Z,22.23
2023-02-14T17:26:11.165Z,23.73
2023-02-14T17:28:37.842Z,25.70
2023-02-14T17:31:04.975Z,21.90
2023-02-14T17:33:33.155Z,23.70
2023-02-14T17:36:07.233Z,26.77
2023-02-14T17:38:35.898Z,24.07
2023-02-14T17:41:22.244Z,22.20
2023-02-14T17:43:50.259Z,24.73
2023-02-14T17:46:20.596Z,25.13
2023-02-14T17:48:48.941Z,22.53
2023-02-14T17:51:17.669Z,24.60
2023-02-14T17:53:44.318Z,23.80
2023-02-14T17:56:14.568Z,22.30
2023-02-14T17:58:42.982Z,22.90
2023-02-14T18:01:11.958Z,22.80
2023-02-14T18:03:39.726Z,23.30
2023-02-14T18:06:09.811Z,24.03
2023-02-14T18:08:42.834Z,24.73
2023-02-14T18:11:11.660Z,25.03
2023-02-14T18:13:38.937Z,25.40
2023-02-14T18:16:10.742Z,23.10
2023-02-14T18:18:38.388Z,24.67
2023-02-14T18:21:06.949Z,24.10
2023-02-14T18:23:33.698Z,24.33
2023-02-14T18:26:04.615Z,25.27
2023-02-14T18:28:32.317Z,25.20
2023-02-14T18:31:06.629Z,25.20
2023-02-14T18:33:34.071Z,27.60
2023-02-14T18:36:12.970Z,24.70
2023-02-14T18:38:41.323Z,23.20
2023-02-14T18:41:11.251Z,24.83
2023-02-14T18:43:38.752Z,25.10
2023-02-14T18:46:09.395Z,24.00
2023-02-14T18:48:36.449Z,26.80
2023-02-14T18:51:15.633Z,23.20
2023-02-14T18:53:44.597Z,26.97
2023-02-14T18:56:16.789Z,23.60
2023-02-14T18:58:48.011Z,23.70
2023-02-14T19:01:17.945Z,24.43
2023-02-14T19:03:45.117Z,25.00
2023-02-14T19:06:13.009Z,24.27
2023-02-14T19:08:41.054Z,24.87
2023-02-14T19:11:12.973Z,24.30
2023-02-14T19:13:43.715Z,25.43
2023-02-14T19:16:16.744Z,23.13
2023-02-14T19:18:43.675Z,24.47
2023-02-14T19:21:15.676Z,22.50
2023-02-14T19:23:44.385Z,23.80
2023-02-14T19:26:14.213Z,23.83
2023-02-14T19:28:41.518Z,23.50
2023-02-14T19:31:08.670Z,23.63
2023-02-14T19:33:40.638Z,23.87
2023-02-14T19:36:09.269Z,21.97
2023-02-14T19:38:36.167Z,23.83
2023-02-14T19:41:03.038Z,24.43
2023-02-14T19:43:29.964Z,24.57
2023-02-14T19:45:57.203Z,22.57
2023-02-14T19:48:24.295Z,25.73
2023-02-14T19:50:52.701Z,24.40
2023-02-14T19:53:19.326Z,24.33
2023-02-14T19:55:46.706Z,26.70
2023-02-14T19:58:13.363Z,25.00
2023-02-14T20:00:40.081Z,25.60
2023-02-14T20:03:07.181Z,26.10
2023-02-14T20:05:37.812Z,25.40
2023-02-14T20:08:05.328Z,24.27
2023-02-14T20:10:32.018Z,25.47
2023-02-14T20:12:58.641Z,26.13
2023-02-14T20:15:26.341Z,23.90
2023-02-14T20:17:52.990Z,25.93
2023-02-14T20:20:21.514Z,23.33
2023-02-14T20:22:48.203Z,23.67
2023-02-14T20:25:14.966Z,23.90
2023-02-14T20:27:41.818Z,25.77
2023-02-14T20:30:09.077Z,23.50
2023-02-14T20:32:35.967Z,25.07
2023-02-14T20:35:02.822Z,26.03
2023-02-14T20:37:29.550Z,25.93
2023-02-14T20:39:56.177Z,26.80
2023-02-14T20:42:23.499Z,25.37
2023-02-14T20:44:50.237Z,24.97
2023-02-14T20:47:17.412Z,25.37
2023-02-14T20:49:44.825Z,25.30
2023-02-14T20:52:11.798Z,26.00
2023-02-14T20:54:38.932Z,24.80
2023-02-14T20:57:05.680Z,24.43
2023-02-14T20:59:32.450Z,27.53
2023-02-14T21:01:59.810Z,25.40
2023-02-14T21:04:27.064Z,28.00
2023-02-14T21:06:54.512Z,28.77
2023-02-14T21:09:21.206Z,26.67
2023-02-14T21:11:48.039Z,27.47
2023-02-14T21:14:17.265Z,26.70
2023-02-14T21:16:44.069Z,27.30
2023-02-14T21:19:10.752Z,29.87
2023-02-14T21:21:38.276Z,29.70
2023-02-14T21:24:11.667Z,30.80
2023-02-14T21:26:39.009Z,30.10
2023-02-14T21:29:06.491Z,29.63
2023-02-14T21:31:34.701Z,31.40
2023-02-14T21:34:02.672Z,29.23
2023-02-14T21:36:32.447Z,32.47
2023-02-14T21:39:00.349Z,28.00
2023-02-14T21:41:29.508Z,25.37
2023-02-14T21:43:58.197Z,25.70
2023-02-14T21:46:29.248Z,24.77
2023-02-14T21:49:16.201Z,26.13
2023-02-14T21:51:43.937Z,27.07
2023-02-14T21:54:11.179Z,26.90
2023-02-14T21:56:39.550Z,29.00
2023-02-14T21:59:06.439Z,28.20
2023-02-14T22:01:36.214Z,27.77
2023-02-14T22:04:07.767Z,28.10
2023-02-14T22:06:37.376Z,28.30
2023-02-14T22:09:04.624Z,28.00
2023-02-14T22:11:32.068Z,26.70
2023-02-14T22:14:00.223Z,25.80
2023-02-14T22:16:27.111Z,26.77
2023-02-14T22:18:54.159Z,26.03
2023-02-14T22:21:23.938Z,26.30
2023-02-14T22:23:51.267Z,27.60
2023-02-14T22:26:24.526Z,28.37
2023-02-14T22:28:54.556Z,26.63
2023-02-14T22:31:21.618Z,26.93
2023-02-14T22:33:49.429Z,27.87
2023-02-14T22:36:16.767Z,26.47
2023-02-14T22:38:43.598Z,27.20
2023-02-14T22:41:16.140Z,27.40
2023-02-14T22:43:43.607Z,30.50
2023-02-14T22:46:13.624Z,27.73
2023-02-14T22:48:40.634Z,28.20
2023-02-14T22:51:20.133Z,28.03
2023-02-14T22:53:47.537Z,26.83
2023-02-14T22:56:20.531Z,26.17
2023-02-14T22:58:47.471Z,27.00
2023-02-14T23:01:20.121Z,27.23
2023-02-14T23:03:48.341Z,28.37
2023-02-14T23:06:15.446Z,28.50
2023-02-14T23:08:43.922Z,28.50
2023-02-14T23:11:13.002Z,30.37
2023-02-14T23:13:58.391Z,28.77
2023-02-14T23:16:43.886Z,28.03
2023-02-14T23:19:37.034Z,27.10
2023-02-14T23:22:07.180Z,26.50
2023-02-14T23:24:33.876Z,28.47
2023-02-14T23:27:01.297Z,30.73
2023-02-14T23:29:28.122Z,29.37
2023-02-14T23:31:55.230Z,30.80
2023-02-14T23:34:27.220Z,27.70
2023-02-14T23:36:54.446Z,30.10
2023-02-14T23:39:21.412Z,30.37
2023-02-14T23:41:48.172Z,27.67
2023-02-14T23:44:15.644Z,29.40
2023-02-14T23:46:42.592Z,29.40
2023-02-14T23:49:09.889Z,27.60
2023-02-14T23:51:37.157Z,28.40
2023-02-14T23:54:04.054Z,30.23
2023-02-14T23:56:31.100Z,28.80
2023-02-14T23:58:57.754Z,26.97
